sensor_id;sensor_type;location;lat;lon;timestamp;P1;durP1;ratioP1;P2;durP2;ratioP2
73437;SDS011;62744;56.802;23.964;2022-08-19T00:02:14;22.10;;;10.90;;
73437;SDS011;62744;56.802;23.964;2022-08-19T00:04:41;16.35;;;11.20;;
73437;SDS011;62744;56.802;23.964;2022-08-19T00:07:09;18.13;;;11.27;;
73437;SDS011;62744;56.802;23.964;2022-08-19T00:09:36;17.45;;;10.80;;
73437;SDS011;62744;56.802;23.964;2022-08-19T00:12:04;18.23;;;11.18;;
73437;SDS011;62744;56.802;23.964;2022-08-19T00:14:32;15.80;;;10.97;;
73437;SDS011;62744;56.802;23.964;2022-08-19T00:17:00;17.92;;;10.70;;
73437;SDS011;62744;56.802;23.964;2022-08-19T00:19:29;17.48;;;11.90;;
73437;SDS011;62744;56.802;23.964;2022-08-19T00:21:57;18.52;;;11.15;;
73437;SDS011;62744;56.802;23.964;2022-08-19T00:24:25;17.95;;;11.27;;
73437;SDS011;62744;56.802;23.964;2022-08-19T00:26:55;16.13;;;10.50;;
73437;SDS011;62744;56.802;23.964;2022-08-19T00:29:43;16.00;;;11.57;;
73437;SDS011;62744;56.802;23.964;2022-08-19T00:32:18;17.42;;;11.07;;
73437;SDS011;62744;56.802;23.964;2022-08-19T00:34:47;16.10;;;11.48;;
73437;SDS011;62744;56.802;23.964;2022-08-19T00:37:14;16.05;;;12.20;;
73437;SDS011;62744;56.802;23.964;2022-08-19T00:39:42;18.67;;;11.53;;
73437;SDS011;62744;56.802;23.964;2022-08-19T00:42:10;21.83;;;12.82;;
73437;SDS011;62744;56.802;23.964;2022-08-19T00:44:41;22.20;;;13.13;;
73437;SDS011;62744;56.802;23.964;2022-08-19T00:47:09;23.05;;;12.82;;
73437;SDS011;62744;56.802;23.964;2022-08-19T00:52:15;21.53;;;12.13;;
73437;SDS011;62744;56.802;23.964;2022-08-19T00:54:49;19.83;;;11.98;;
73437;SDS011;62744;56.802;23.964;2022-08-19T00:57:22;22.13;;;12.77;;
73437;SDS011;62744;56.802;23.964;2022-08-19T00:59:56;17.23;;;11.40;;
73437;SDS011;62744;56.802;23.964;2022-08-19T01:02:28;18.42;;;12.10;;
73437;SDS011;62744;56.802;23.964;2022-08-19T01:04:57;18.80;;;11.20;;
73437;SDS011;62744;56.802;23.964;2022-08-19T01:07:26;16.35;;;11.60;;
73437;SDS011;62744;56.802;23.964;2022-08-19T01:10:02;14.40;;;10.70;;
73437;SDS011;62744;56.802;23.964;2022-08-19T01:12:30;16.55;;;11.38;;
73437;SDS011;62744;56.802;23.964;2022-08-19T01:14:58;18.63;;;11.85;;
73437;SDS011;62744;56.802;23.964;2022-08-19T01:17:26;16.23;;;11.40;;
73437;SDS011;62744;56.802;23.964;2022-08-19T01:19:54;18.02;;;10.82;;
73437;SDS011;62744;56.802;23.964;2022-08-19T01:22:30;19.23;;;10.65;;
73437;SDS011;62744;56.802;23.964;2022-08-19T01:25:05;17.25;;;11.18;;
73437;SDS011;62744;56.802;23.964;2022-08-19T01:27:41;15.25;;;10.90;;
73437;SDS011;62744;56.802;23.964;2022-08-19T01:30:12;20.17;;;11.53;;
73437;SDS011;62744;56.802;23.964;2022-08-19T01:32:43;14.68;;;10.57;;
73437;SDS011;62744;56.802;23.964;2022-08-19T01:35:12;16.80;;;10.52;;
73437;SDS011;62744;56.802;23.964;2022-08-19T01:37:45;15.75;;;10.82;;
73437;SDS011;62744;56.802;23.964;2022-08-19T01:40:19;17.67;;;11.02;;
73437;SDS011;62744;56.802;23.964;2022-08-19T01:42:48;16.30;;;10.33;;
73437;SDS011;62744;56.802;23.964;2022-08-19T01:45:17;16.90;;;11.10;;
73437;SDS011;62744;56.802;23.964;2022-08-19T01:47:46;19.17;;;11.10;;
73437;SDS011;62744;56.802;23.964;2022-08-19T01:50:27;19.65;;;11.23;;
73437;SDS011;62744;56.802;23.964;2022-08-19T01:52:55;16.65;;;11.10;;
73437;SDS011;62744;56.802;23.964;2022-08-19T01:55:31;15.07;;;11.43;;
73437;SDS011;62744;56.802;23.964;2022-08-19T01:57:59;19.35;;;10.45;;
73437;SDS011;62744;56.802;23.964;2022-08-19T02:00:30;15.95;;;10.65;;
73437;SDS011;62744;56.802;23.964;2022-08-19T02:02:58;17.38;;;11.57;;
73437;SDS011;62744;56.802;23.964;2022-08-19T02:05:27;18.33;;;11.40;;
73437;SDS011;62744;56.802;23.964;2022-08-19T02:07:56;15.67;;;11.13;;
73437;SDS011;62744;56.802;23.964;2022-08-19T02:10:23;19.35;;;10.80;;
73437;SDS011;62744;56.802;23.964;2022-08-19T02:12:51;14.77;;;11.65;;
73437;SDS011;62744;56.802;23.964;2022-08-19T02:15:19;18.77;;;10.98;;
73437;SDS011;62744;56.802;23.964;2022-08-19T02:17:47;14.80;;;10.90;;
73437;SDS011;62744;56.802;23.964;2022-08-19T02:20:15;18.57;;;11.17;;
73437;SDS011;62744;56.802;23.964;2022-08-19T02:22:43;15.95;;;11.13;;
73437;SDS011;62744;56.802;23.964;2022-08-19T02:25:12;17.23;;;11.80;;
73437;SDS011;62744;56.802;23.964;2022-08-19T02:27:40;19.42;;;11.07;;
73437;SDS011;62744;56.802;23.964;2022-08-19T02:30:11;15.95;;;11.18;;
73437;SDS011;62744;56.802;23.964;2022-08-19T02:32:42;17.90;;;10.70;;
73437;SDS011;62744;56.802;23.964;2022-08-19T02:35:11;24.67;;;11.90;;
73437;SDS011;62744;56.802;23.964;2022-08-19T02:37:40;18.10;;;11.52;;
73437;SDS011;62744;56.802;23.964;2022-08-19T02:40:28;16.55;;;10.40;;
73437;SDS011;62744;56.802;23.964;2022-08-19T02:43:01;17.35;;;11.43;;
73437;SDS011;62744;56.802;23.964;2022-08-19T02:45:33;19.93;;;11.40;;
73437;SDS011;62744;56.802;23.964;2022-08-19T02:48:05;18.20;;;11.07;;
73437;SDS011;62744;56.802;23.964;2022-08-19T02:50:47;16.08;;;10.63;;
73437;SDS011;62744;56.802;23.964;2022-08-19T02:53:22;16.73;;;10.93;;
73437;SDS011;62744;56.802;23.964;2022-08-19T02:55:51;15.65;;;11.50;;
73437;SDS011;62744;56.802;23.964;2022-08-19T02:58:19;19.20;;;10.97;;
73437;SDS011;62744;56.802;23.964;2022-08-19T03:00:49;16.95;;;12.00;;
73437;SDS011;62744;56.802;23.964;2022-08-19T03:03:18;21.13;;;10.98;;
73437;SDS011;62744;56.802;23.964;2022-08-19T03:05:46;17.08;;;11.18;;
73437;SDS011;62744;56.802;23.964;2022-08-19T03:08:23;15.57;;;10.77;;
73437;SDS011;62744;56.802;23.964;2022-08-19T03:10:52;14.77;;;10.10;;
73437;SDS011;62744;56.802;23.964;2022-08-19T03:13:20;16.73;;;10.30;;
73437;SDS011;62744;56.802;23.964;2022-08-19T03:15:48;15.50;;;10.85;;
73437;SDS011;62744;56.802;23.964;2022-08-19T03:18:16;17.25;;;10.80;;
73437;SDS011;62744;56.802;23.964;2022-08-19T03:20:45;19.70;;;10.50;;
73437;SDS011;62744;56.802;23.964;2022-08-19T03:23:14;18.83;;;10.20;;
73437;SDS011;62744;56.802;23.964;2022-08-19T03:25:43;14.77;;;10.02;;
73437;SDS011;62744;56.802;23.964;2022-08-19T03:28:28;15.90;;;10.57;;
73437;SDS011;62744;56.802;23.964;2022-08-19T03:31:00;16.13;;;10.85;;
73437;SDS011;62744;56.802;23.964;2022-08-19T03:33:51;16.10;;;10.73;;
73437;SDS011;62744;56.802;23.964;2022-08-19T03:36:20;16.07;;;10.20;;
73437;SDS011;62744;56.802;23.964;2022-08-19T03:38:50;14.77;;;10.10;;
73437;SDS011;62744;56.802;23.964;2022-08-19T03:41:26;17.75;;;10.57;;
73437;SDS011;62744;56.802;23.964;2022-08-19T03:44:11;14.38;;;10.00;;
73437;SDS011;62744;56.802;23.964;2022-08-19T03:46:44;14.85;;;10.20;;
73437;SDS011;62744;56.802;23.964;2022-08-19T03:49:13;18.57;;;10.33;;
73437;SDS011;62744;56.802;23.964;2022-08-19T03:51:43;17.02;;;9.70;;
73437;SDS011;62744;56.802;23.964;2022-08-19T03:54:13;15.00;;;10.00;;
73437;SDS011;62744;56.802;23.964;2022-08-19T03:56:42;14.68;;;10.80;;
73437;SDS011;62744;56.802;23.964;2022-08-19T03:59:16;16.23;;;10.35;;
73437;SDS011;62744;56.802;23.964;2022-08-19T04:01:46;14.83;;;9.57;;
73437;SDS011;62744;56.802;23.964;2022-08-19T04:04:14;15.77;;;9.85;;
73437;SDS011;62744;56.802;23.964;2022-08-19T04:06:42;13.85;;;9.63;;
73437;SDS011;62744;56.802;23.964;2022-08-19T04:09:10;19.77;;;10.38;;
73437;SDS011;62744;56.802;23.964;2022-08-19T04:11:39;16.95;;;10.07;;
73437;SDS011;62744;56.802;23.964;2022-08-19T04:14:16;14.93;;;9.80;;
73437;SDS011;62744;56.802;23.964;2022-08-19T04:16:46;18.10;;;10.23;;
73437;SDS011;62744;56.802;23.964;2022-08-19T04:19:15;17.48;;;9.45;;
73437;SDS011;62744;56.802;23.964;2022-08-19T04:21:45;13.95;;;9.38;;
73437;SDS011;62744;56.802;23.964;2022-08-19T04:24:16;16.40;;;10.18;;
73437;SDS011;62744;56.802;23.964;2022-08-19T04:26:45;13.63;;;9.00;;
73437;SDS011;62744;56.802;23.964;2022-08-19T04:29:15;15.85;;;9.25;;
73437;SDS011;62744;56.802;23.964;2022-08-19T04:31:45;16.40;;;9.27;;
73437;SDS011;62744;56.802;23.964;2022-08-19T04:34:13;15.82;;;8.75;;
73437;SDS011;62744;56.802;23.964;2022-08-19T04:36:43;16.35;;;9.45;;
73437;SDS011;62744;56.802;23.964;2022-08-19T04:39:15;14.17;;;8.50;;
73437;SDS011;62744;56.802;23.964;2022-08-19T04:41:44;15.50;;;9.55;;
73437;SDS011;62744;56.802;23.964;2022-08-19T04:44:31;16.55;;;8.90;;
73437;SDS011;62744;56.802;23.964;2022-08-19T04:47:01;15.98;;;8.52;;
73437;SDS011;62744;56.802;23.964;2022-08-19T04:49:36;14.07;;;8.40;;
73437;SDS011;62744;56.802;23.964;2022-08-19T04:52:05;14.60;;;8.23;;
73437;SDS011;62744;56.802;23.964;2022-08-19T04:54:33;12.38;;;8.23;;
73437;SDS011;62744;56.802;23.964;2022-08-19T04:57:05;16.58;;;8.95;;
73437;SDS011;62744;56.802;23.964;2022-08-19T04:59:37;12.23;;;7.93;;
73437;SDS011;62744;56.802;23.964;2022-08-19T05:02:07;13.88;;;8.38;;
73437;SDS011;62744;56.802;23.964;2022-08-19T05:04:36;12.73;;;8.60;;
73437;SDS011;62744;56.802;23.964;2022-08-19T05:07:06;15.38;;;8.23;;
73437;SDS011;62744;56.802;23.964;2022-08-19T05:09:34;18.02;;;8.63;;
73437;SDS011;62744;56.802;23.964;2022-08-19T05:12:22;16.90;;;7.70;;
73437;SDS011;62744;56.802;23.964;2022-08-19T05:14:54;14.40;;;8.40;;
73437;SDS011;62744;56.802;23.964;2022-08-19T05:17:26;15.57;;;7.90;;
73437;SDS011;62744;56.802;23.964;2022-08-19T05:20:00;14.23;;;8.20;;
73437;SDS011;62744;56.802;23.964;2022-08-19T05:22:47;13.05;;;8.02;;
73437;SDS011;62744;56.802;23.964;2022-08-19T05:25:16;14.07;;;8.55;;
73437;SDS011;62744;56.802;23.964;2022-08-19T05:27:46;23.13;;;8.35;;
73437;SDS011;62744;56.802;23.964;2022-08-19T05:30:14;14.07;;;7.60;;
73437;SDS011;62744;56.802;23.964;2022-08-19T05:32:42;13.55;;;7.82;;
73437;SDS011;62744;56.802;23.964;2022-08-19T05:35:10;13.85;;;8.38;;
73437;SDS011;62744;56.802;23.964;2022-08-19T05:37:38;12.95;;;7.85;;
73437;SDS011;62744;56.802;23.964;2022-08-19T05:40:09;11.32;;;7.10;;
73437;SDS011;62744;56.802;23.964;2022-08-19T05:42:37;13.40;;;7.33;;
73437;SDS011;62744;56.802;23.964;2022-08-19T05:45:05;14.85;;;7.80;;
73437;SDS011;62744;56.802;23.964;2022-08-19T05:47:34;13.73;;;7.88;;
73437;SDS011;62744;56.802;23.964;2022-08-19T05:50:07;15.45;;;8.10;;
73437;SDS011;62744;56.802;23.964;2022-08-19T05:52:36;16.00;;;7.60;;
73437;SDS011;62744;56.802;23.964;2022-08-19T05:55:19;15.30;;;7.10;;
73437;SDS011;62744;56.802;23.964;2022-08-19T05:57:47;14.98;;;7.57;;
73437;SDS011;62744;56.802;23.964;2022-08-19T06:00:15;12.05;;;7.93;;
73437;SDS011;62744;56.802;23.964;2022-08-19T06:02:49;13.27;;;7.63;;
73437;SDS011;62744;56.802;23.964;2022-08-19T06:05:18;17.23;;;8.00;;
73437;SDS011;62744;56.802;23.964;2022-08-19T06:07:46;12.40;;;8.10;;
73437;SDS011;62744;56.802;23.964;2022-08-19T06:10:14;10.90;;;7.22;;
73437;SDS011;62744;56.802;23.964;2022-08-19T06:12:41;13.05;;;7.97;;
73437;SDS011;62744;56.802;23.964;2022-08-19T06:15:10;19.25;;;7.90;;
73437;SDS011;62744;56.802;23.964;2022-08-19T06:17:40;16.15;;;7.50;;
73437;SDS011;62744;56.802;23.964;2022-08-19T06:20:09;13.37;;;7.47;;
73437;SDS011;62744;56.802;23.964;2022-08-19T06:22:47;16.27;;;7.18;;
73437;SDS011;62744;56.802;23.964;2022-08-19T06:25:18;13.20;;;7.07;;
73437;SDS011;62744;56.802;23.964;2022-08-19T06:27:46;11.82;;;7.30;;
73437;SDS011;62744;56.802;23.964;2022-08-19T06:30:35;12.38;;;7.72;;
73437;SDS011;62744;56.802;23.964;2022-08-19T06:33:03;14.07;;;7.20;;
73437;SDS011;62744;56.802;23.964;2022-08-19T06:35:30;12.13;;;6.97;;
73437;SDS011;62744;56.802;23.964;2022-08-19T06:37:58;18.52;;;7.75;;
73437;SDS011;62744;56.802;23.964;2022-08-19T06:40:25;17.48;;;8.30;;
73437;SDS011;62744;56.802;23.964;2022-08-19T06:42:54;16.67;;;7.85;;
73437;SDS011;62744;56.802;23.964;2022-08-19T06:45:25;15.37;;;7.07;;
73437;SDS011;62744;56.802;23.964;2022-08-19T06:48:01;17.42;;;7.70;;
73437;SDS011;62744;56.802;23.964;2022-08-19T06:50:29;16.58;;;7.45;;
73437;SDS011;62744;56.802;23.964;2022-08-19T06:52:56;15.18;;;7.50;;
73437;SDS011;62744;56.802;23.964;2022-08-19T06:55:30;14.02;;;7.22;;
73437;SDS011;62744;56.802;23.964;2022-08-19T06:58:01;12.70;;;7.13;;
73437;SDS011;62744;56.802;23.964;2022-08-19T07:00:30;18.48;;;7.60;;
73437;SDS011;62744;56.802;23.964;2022-08-19T07:02:58;18.23;;;8.15;;
73437;SDS011;62744;56.802;23.964;2022-08-19T07:05:37;13.45;;;7.90;;
73437;SDS011;62744;56.802;23.964;2022-08-19T07:08:11;13.52;;;7.82;;
73437;SDS011;62744;56.802;23.964;2022-08-19T07:10:44;12.40;;;8.20;;
73437;SDS011;62744;56.802;23.964;2022-08-19T07:13:12;15.60;;;8.07;;
73437;SDS011;62744;56.802;23.964;2022-08-19T07:15:40;15.05;;;8.07;;
73437;SDS011;62744;56.802;23.964;2022-08-19T07:18:08;14.48;;;7.80;;
73437;SDS011;62744;56.802;23.964;2022-08-19T07:20:37;15.00;;;7.85;;
73437;SDS011;62744;56.802;23.964;2022-08-19T07:23:07;14.87;;;8.00;;
73437;SDS011;62744;56.802;23.964;2022-08-19T07:25:42;15.20;;;7.38;;
73437;SDS011;62744;56.802;23.964;2022-08-19T07:28:18;14.75;;;7.35;;
73437;SDS011;62744;56.802;23.964;2022-08-19T07:30:50;15.50;;;7.82;;
73437;SDS011;62744;56.802;23.964;2022-08-19T07:33:18;25.90;;;7.70;;
73437;SDS011;62744;56.802;23.964;2022-08-19T07:35:46;14.47;;;7.57;;
73437;SDS011;62744;56.802;23.964;2022-08-19T07:38:15;16.95;;;7.30;;
73437;SDS011;62744;56.802;23.964;2022-08-19T07:40:43;16.75;;;8.75;;
73437;SDS011;62744;56.802;23.964;2022-08-19T07:43:12;15.15;;;7.70;;
73437;SDS011;62744;56.802;23.964;2022-08-19T07:45:43;13.15;;;8.35;;
73437;SDS011;62744;56.802;23.964;2022-08-19T07:48:11;14.43;;;7.33;;
73437;SDS011;62744;56.802;23.964;2022-08-19T07:50:39;14.85;;;7.25;;
73437;SDS011;62744;56.802;23.964;2022-08-19T07:53:06;12.80;;;7.60;;
73437;SDS011;62744;56.802;23.964;2022-08-19T07:55:33;23.27;;;8.38;;
73437;SDS011;62744;56.802;23.964;2022-08-19T07:58:08;17.92;;;7.60;;
73437;SDS011;62744;56.802;23.964;2022-08-19T08:00:37;14.83;;;7.20;;
73437;SDS011;62744;56.802;23.964;2022-08-19T08:03:05;13.70;;;7.50;;
73437;SDS011;62744;56.802;23.964;2022-08-19T08:05:32;13.18;;;7.40;;
73437;SDS011;62744;56.802;23.964;2022-08-19T08:08:32;12.35;;;6.82;;
73437;SDS011;62744;56.802;23.964;2022-08-19T08:11:18;17.08;;;7.80;;
73437;SDS011;62744;56.802;23.964;2022-08-19T08:13:49;14.47;;;6.83;;
73437;SDS011;62744;56.802;23.964;2022-08-19T08:16:30;14.40;;;6.78;;
73437;SDS011;62744;56.802;23.964;2022-08-19T08:19:05;11.05;;;6.50;;
73437;SDS011;62744;56.802;23.964;2022-08-19T08:21:48;14.60;;;6.75;;
73437;SDS011;62744;56.802;23.964;2022-08-19T08:24:16;14.57;;;7.22;;
73437;SDS011;62744;56.802;23.964;2022-08-19T08:26:44;14.40;;;6.90;;
73437;SDS011;62744;56.802;23.964;2022-08-19T08:29:17;20.25;;;6.93;;
73437;SDS011;62744;56.802;23.964;2022-08-19T08:31:46;14.30;;;6.70;;
73437;SDS011;62744;56.802;23.964;2022-08-19T08:34:24;13.82;;;6.75;;
73437;SDS011;62744;56.802;23.964;2022-08-19T08:36:52;17.38;;;6.90;;
73437;SDS011;62744;56.802;23.964;2022-08-19T08:39:20;13.13;;;7.00;;
73437;SDS011;62744;56.802;23.964;2022-08-19T08:44:54;11.00;;;6.43;;
73437;SDS011;62744;56.802;23.964;2022-08-19T08:47:25;14.20;;;6.93;;
73437;SDS011;62744;56.802;23.964;2022-08-19T08:50:03;15.43;;;6.70;;
73437;SDS011;62744;56.802;23.964;2022-08-19T08:52:36;15.93;;;6.50;;
73437;SDS011;62744;56.802;23.964;2022-08-19T08:55:16;14.00;;;7.75;;
73437;SDS011;62744;56.802;23.964;2022-08-19T09:02:54;14.80;;;7.20;;
73437;SDS011;62744;56.802;23.964;2022-08-19T09:05:25;13.80;;;7.00;;
73437;SDS011;62744;56.802;23.964;2022-08-19T09:10:51;16.40;;;7.43;;
73437;SDS011;62744;56.802;23.964;2022-08-19T09:13:31;12.00;;;6.85;;
73437;SDS011;62744;56.802;23.964;2022-08-19T09:16:19;12.63;;;6.90;;
73437;SDS011;62744;56.802;23.964;2022-08-19T09:18:54;18.80;;;7.97;;
73437;SDS011;62744;56.802;23.964;2022-08-19T09:21:28;14.00;;;7.18;;
73437;SDS011;62744;56.802;23.964;2022-08-19T09:24:00;20.40;;;6.55;;
73437;SDS011;62744;56.802;23.964;2022-08-19T09:26:29;16.77;;;7.10;;
73437;SDS011;62744;56.802;23.964;2022-08-19T09:29:18;19.55;;;7.13;;
73437;SDS011;62744;56.802;23.964;2022-08-19T09:31:48;14.77;;;7.47;;
73437;SDS011;62744;56.802;23.964;2022-08-19T09:34:16;15.85;;;7.40;;
73437;SDS011;62744;56.802;23.964;2022-08-19T09:36:48;13.15;;;6.43;;
73437;SDS011;62744;56.802;23.964;2022-08-19T09:39:20;11.90;;;6.55;;
73437;SDS011;62744;56.802;23.964;2022-08-19T09:41:48;14.57;;;7.32;;
73437;SDS011;62744;56.802;23.964;2022-08-19T09:44:16;13.00;;;6.50;;
73437;SDS011;62744;56.802;23.964;2022-08-19T09:46:47;13.80;;;6.35;;
73437;SDS011;62744;56.802;23.964;2022-08-19T09:49:15;17.58;;;6.78;;
73437;SDS011;62744;56.802;23.964;2022-08-19T09:51:44;14.43;;;6.60;;
73437;SDS011;62744;56.802;23.964;2022-08-19T09:54:17;16.05;;;7.05;;
73437;SDS011;62744;56.802;23.964;2022-08-19T09:56:51;11.20;;;5.90;;
73437;SDS011;62744;56.802;23.964;2022-08-19T09:59:22;16.25;;;6.10;;
73437;SDS011;62744;56.802;23.964;2022-08-19T10:01:50;14.25;;;6.55;;
73437;SDS011;62744;56.802;23.964;2022-08-19T10:04:18;16.70;;;5.97;;
73437;SDS011;62744;56.802;23.964;2022-08-19T10:06:50;11.65;;;6.30;;
73437;SDS011;62744;56.802;23.964;2022-08-19T10:09:20;12.57;;;5.50;;
73437;SDS011;62744;56.802;23.964;2022-08-19T10:11:58;16.00;;;6.10;;
73437;SDS011;62744;56.802;23.964;2022-08-19T10:14:28;12.65;;;5.80;;
73437;SDS011;62744;56.802;23.964;2022-08-19T10:16:55;10.50;;;5.18;;
73437;SDS011;62744;56.802;23.964;2022-08-19T10:19:24;12.25;;;5.05;;
73437;SDS011;62744;56.802;23.964;2022-08-19T10:21:53;12.93;;;5.57;;
73437;SDS011;62744;56.802;23.964;2022-08-19T10:24:25;9.88;;;5.55;;
73437;SDS011;62744;56.802;23.964;2022-08-19T10:26:55;13.02;;;5.18;;
73437;SDS011;62744;56.802;23.964;2022-08-19T10:29:26;12.98;;;5.30;;
73437;SDS011;62744;56.802;23.964;2022-08-19T10:31:58;19.55;;;5.75;;
73437;SDS011;62744;56.802;23.964;2022-08-19T10:34:28;13.40;;;5.03;;
73437;SDS011;62744;56.802;23.964;2022-08-19T10:36:57;11.90;;;4.55;;
73437;SDS011;62744;56.802;23.964;2022-08-19T10:39:28;9.57;;;5.25;;
73437;SDS011;62744;56.802;23.964;2022-08-19T10:42:06;12.23;;;5.03;;
73437;SDS011;62744;56.802;23.964;2022-08-19T10:44:34;12.48;;;5.40;;
73437;SDS011;62744;56.802;23.964;2022-08-19T10:47:02;12.93;;;5.67;;
73437;SDS011;62744;56.802;23.964;2022-08-19T10:49:48;14.40;;;5.45;;
73437;SDS011;62744;56.802;23.964;2022-08-19T10:52:37;11.23;;;5.32;;
73437;SDS011;62744;56.802;23.964;2022-08-19T10:55:16;11.30;;;5.80;;
73437;SDS011;62744;56.802;23.964;2022-08-19T10:58:25;12.02;;;5.43;;
73437;SDS011;62744;56.802;23.964;2022-08-19T11:00:53;9.13;;;5.10;;
73437;SDS011;62744;56.802;23.964;2022-08-19T11:03:23;16.75;;;4.75;;
73437;SDS011;62744;56.802;23.964;2022-08-19T11:06:05;10.75;;;5.20;;
73437;SDS011;62744;56.802;23.964;2022-08-19T11:08:34;13.27;;;5.32;;
73437;SDS011;62744;56.802;23.964;2022-08-19T11:11:04;21.05;;;6.18;;
73437;SDS011;62744;56.802;23.964;2022-08-19T11:13:35;13.13;;;5.07;;
73437;SDS011;62744;56.802;23.964;2022-08-19T11:16:14;12.75;;;5.38;;
73437;SDS011;62744;56.802;23.964;2022-08-19T11:18:49;9.13;;;5.32;;
73437;SDS011;62744;56.802;23.964;2022-08-19T11:21:19;13.70;;;6.38;;
73437;SDS011;62744;56.802;23.964;2022-08-19T11:23:52;9.90;;;5.82;;
73437;SDS011;62744;56.802;23.964;2022-08-19T11:26:22;13.57;;;4.93;;
73437;SDS011;62744;56.802;23.964;2022-08-19T11:28:50;10.73;;;5.15;;
73437;SDS011;62744;56.802;23.964;2022-08-19T11:31:21;12.98;;;5.13;;
73437;SDS011;62744;56.802;23.964;2022-08-19T11:33:58;12.38;;;5.15;;
73437;SDS011;62744;56.802;23.964;2022-08-19T11:36:28;13.60;;;5.65;;
73437;SDS011;62744;56.802;23.964;2022-08-19T11:38:58;12.53;;;4.73;;
73437;SDS011;62744;56.802;23.964;2022-08-19T11:41:26;13.75;;;5.40;;
73437;SDS011;62744;56.802;23.964;2022-08-19T11:43:54;14.32;;;5.72;;
73437;SDS011;62744;56.802;23.964;2022-08-19T11:46:23;9.02;;;4.75;;
73437;SDS011;62744;56.802;23.964;2022-08-19T11:48:53;15.65;;;5.75;;
73437;SDS011;62744;56.802;23.964;2022-08-19T11:51:23;14.77;;;5.93;;
73437;SDS011;62744;56.802;23.964;2022-08-19T11:53:52;14.20;;;5.40;;
73437;SDS011;62744;56.802;23.964;2022-08-19T11:56:21;16.10;;;5.35;;
73437;SDS011;62744;56.802;23.964;2022-08-19T11:58:49;23.45;;;5.95;;
73437;SDS011;62744;56.802;23.964;2022-08-19T12:01:18;14.45;;;5.38;;
73437;SDS011;62744;56.802;23.964;2022-08-19T12:03:48;11.20;;;5.23;;
73437;SDS011;62744;56.802;23.964;2022-08-19T12:06:21;10.43;;;5.25;;
73437;SDS011;62744;56.802;23.964;2022-08-19T12:08:55;13.13;;;5.60;;
73437;SDS011;62744;56.802;23.964;2022-08-19T12:11:24;9.18;;;5.18;;
73437;SDS011;62744;56.802;23.964;2022-08-19T12:13:51;11.57;;;5.45;;
73437;SDS011;62744;56.802;23.964;2022-08-19T12:16:21;9.70;;;5.47;;
73437;SDS011;62744;56.802;23.964;2022-08-19T12:18:51;10.98;;;5.50;;
73437;SDS011;62744;56.802;23.964;2022-08-19T12:21:19;12.55;;;5.55;;
73437;SDS011;62744;56.802;23.964;2022-08-19T12:23:51;13.15;;;5.80;;
73437;SDS011;62744;56.802;23.964;2022-08-19T12:26:21;12.02;;;5.45;;
73437;SDS011;62744;56.802;23.964;2022-08-19T12:28:49;12.90;;;5.90;;
73437;SDS011;62744;56.802;23.964;2022-08-19T12:31:17;10.02;;;5.60;;
73437;SDS011;62744;56.802;23.964;2022-08-19T12:33:46;10.00;;;5.13;;
73437;SDS011;62744;56.802;23.964;2022-08-19T12:36:14;10.63;;;5.50;;
73437;SDS011;62744;56.802;23.964;2022-08-19T12:38:44;11.68;;;5.38;;
73437;SDS011;62744;56.802;23.964;2022-08-19T12:41:14;11.93;;;5.23;;
73437;SDS011;62744;56.802;23.964;2022-08-19T12:43:44;16.63;;;5.65;;
73437;SDS011;62744;56.802;23.964;2022-08-19T12:46:12;12.70;;;5.60;;
73437;SDS011;62744;56.802;23.964;2022-08-19T12:48:43;10.18;;;5.63;;
73437;SDS011;62744;56.802;23.964;2022-08-19T12:51:17;16.05;;;6.05;;
73437;SDS011;62744;56.802;23.964;2022-08-19T12:53:46;14.27;;;5.90;;
73437;SDS011;62744;56.802;23.964;2022-08-19T12:56:16;16.70;;;7.05;;
73437;SDS011;62744;56.802;23.964;2022-08-19T12:58:48;21.85;;;6.70;;
73437;SDS011;62744;56.802;23.964;2022-08-19T13:01:18;10.25;;;6.25;;
73437;SDS011;62744;56.802;23.964;2022-08-19T13:03:48;11.52;;;6.18;;
73437;SDS011;62744;56.802;23.964;2022-08-19T13:06:19;15.17;;;5.80;;
73437;SDS011;62744;56.802;23.964;2022-08-19T13:08:47;12.85;;;6.45;;
73437;SDS011;62744;56.802;23.964;2022-08-19T13:11:16;13.43;;;6.35;;
73437;SDS011;62744;56.802;23.964;2022-08-19T13:13:47;14.50;;;6.40;;
73437;SDS011;62744;56.802;23.964;2022-08-19T13:16:17;15.07;;;7.07;;
73437;SDS011;62744;56.802;23.964;2022-08-19T13:18:46;14.20;;;6.53;;
73437;SDS011;62744;56.802;23.964;2022-08-19T13:21:14;14.30;;;5.57;;
73437;SDS011;62744;56.802;23.964;2022-08-19T13:23:42;13.48;;;6.55;;
73437;SDS011;62744;56.802;23.964;2022-08-19T13:26:10;9.80;;;6.30;;
73437;SDS011;62744;56.802;23.964;2022-08-19T13:28:39;13.02;;;6.72;;
73437;SDS011;62744;56.802;23.964;2022-08-19T13:31:26;12.17;;;7.13;;
73437;SDS011;62744;56.802;23.964;2022-08-19T13:35:08;18.23;;;6.65;;
73437;SDS011;62744;56.802;23.964;2022-08-19T13:38:59;14.02;;;6.70;;
73437;SDS011;62744;56.802;23.964;2022-08-19T13:42:52;15.98;;;6.68;;
73437;SDS011;62744;56.802;23.964;2022-08-19T13:46:41;9.65;;;5.88;;
73437;SDS011;62744;56.802;23.964;2022-08-19T13:50:33;12.60;;;6.60;;
73437;SDS011;62744;56.802;23.964;2022-08-19T13:54:23;13.82;;;5.75;;
73437;SDS011;62744;56.802;23.964;2022-08-19T13:58:14;15.90;;;6.95;;
73437;SDS011;62744;56.802;23.964;2022-08-19T14:02:05;15.13;;;6.30;;
73437;SDS011;62744;56.802;23.964;2022-08-19T14:05:57;11.95;;;6.55;;
73437;SDS011;62744;56.802;23.964;2022-08-19T14:09:47;10.90;;;6.80;;
73437;SDS011;62744;56.802;23.964;2022-08-19T14:13:39;16.70;;;6.55;;
73437;SDS011;62744;56.802;23.964;2022-08-19T14:17:29;16.83;;;6.65;;
73437;SDS011;62744;56.802;23.964;2022-08-19T14:21:21;9.48;;;6.30;;
73437;SDS011;62744;56.802;23.964;2022-08-19T14:25:13;11.75;;;6.93;;
73437;SDS011;62744;56.802;23.964;2022-08-19T14:29:07;14.10;;;6.03;;
73437;SDS011;62744;56.802;23.964;2022-08-19T14:33:04;13.38;;;6.03;;
73437;SDS011;62744;56.802;23.964;2022-08-19T14:36:59;15.13;;;6.03;;
73437;SDS011;62744;56.802;23.964;2022-08-19T14:40:55;15.40;;;6.28;;
73437;SDS011;62744;56.802;23.964;2022-08-19T14:44:50;11.40;;;5.72;;
73437;SDS011;62744;56.802;23.964;2022-08-19T14:48:46;12.30;;;5.77;;
73437;SDS011;62744;56.802;23.964;2022-08-19T14:52:42;12.10;;;5.82;;
73437;SDS011;62744;56.802;23.964;2022-08-19T14:56:39;10.48;;;6.40;;
73437;SDS011;62744;56.802;23.964;2022-08-19T15:00:35;13.30;;;6.57;;
73437;SDS011;62744;56.802;23.964;2022-08-19T15:03:05;13.45;;;5.28;;
73437;SDS011;62744;56.802;23.964;2022-08-19T15:05:33;14.20;;;7.17;;
73437;SDS011;62744;56.802;23.964;2022-08-19T15:08:03;13.18;;;7.93;;
73437;SDS011;62744;56.802;23.964;2022-08-19T15:10:31;15.02;;;5.43;;
73437;SDS011;62744;56.802;23.964;2022-08-19T15:12:58;9.80;;;5.50;;
73437;SDS011;62744;56.802;23.964;2022-08-19T15:15:26;10.68;;;5.38;;
73437;SDS011;62744;56.802;23.964;2022-08-19T15:17:54;16.63;;;5.50;;
73437;SDS011;62744;56.802;23.964;2022-08-19T15:20:28;14.00;;;5.30;;
73437;SDS011;62744;56.802;23.964;2022-08-19T15:22:57;12.40;;;5.30;;
73437;SDS011;62744;56.802;23.964;2022-08-19T15:25:25;10.77;;;6.22;;
73437;SDS011;62744;56.802;23.964;2022-08-19T15:27:54;11.25;;;6.20;;